Latest Weather Observations for Wagga Wagga

IDN60801

Issued at 2:05 pm EST Wednesday 24 September 2014 (issued every 30 minutes, with the page automatically refreshed every 10 minutes)

About weather observations | Map of weather stations | Latest weather observations for NSW | Other Formats
Station Details ID: 072150 Name: WAGGA WAGGA AMO Lat: -35.16 Lon: 147.46 Height: 212.0 m
Data from the previous 72 hours. | See also: Recent months at Wagga Wagga
Date/Time
EST
Temp
°C
App
Temp
°C
Dew
Point
Rel
Hum
%
Delta-T
°C
Wind Press
QNH
hPa
Press
MSL
hPa
Rain
since 9 am
mm
Dir
 
Spd
km/h
Gust
km/h
Spd
kts
Gust
kts
24/02:00pm 18.9 13.7 11.5 62 4.1 E 30 37 16 20 1016.0 1016.1 1.0
24/01:30pm 16.3 13.5 12.5 78 2.1 E 19 24 10 13 1016.8 1016.9 1.0
24/01:00pm 16.0 13.3 11.8 76 2.3 E 17 20 9 11 1017.6 1017.7 0.8
24/12:30pm 15.5 12.9 10.8 73 2.5 E 15 19 8 10 1018.4 1018.5 0.8
24/12:00pm 15.0 12.2 12.5 85 1.4 ESE 19 26 10 14 1018.7 1018.8 0.8
24/11:30am 14.4 11.7 11.8 84 1.4 E 17 20 9 11 1019.6 1019.7 0.8
24/11:00am 14.3 12.1 10.7 79 1.9 E 13 17 7 9 1020.3 1020.4 0.8
24/10:30am 15.0 13.4 10.1 72 2.6 NE 9 13 5 7 1020.8 1020.9 0.0
24/10:00am 16.6 12.5 6.2 50 5.1 NNE 17 28 9 15 1021.2 1021.3 0.0
24/09:30am 16.6 12.3 7.0 53 4.8 ENE 19 24 10 13 1021.3 1021.4 0.0
24/09:00am 15.2 11.9 6.4 55 4.3 E 13 17 7 9 1021.4 1021.5 0.0
24/08:30am 14.0 11.0 7.5 65 3.2 E 13 15 7 8 1021.7 1021.8 0.0
24/08:00am 13.5 11.0 6.7 63 3.3 E 9 11 5 6 1021.9 1022.0 0.0
24/07:30am 12.7 11.7 7.4 70 2.6 NW 2 11 1 6 1021.8 1021.9 0.0
24/07:00am 12.9 10.5 6.9 67 2.9 E 9 11 5 6 1021.4 1021.5 0.0
24/06:30am 13.1 10.0 5.7 61 3.5 E 11 15 6 8 1020.8 1020.9 0.0
24/06:00am 12.6 9.1 5.6 62 3.3 ESE 13 15 7 8 1020.6 1020.7 0.0
24/05:30am 11.7 9.2 6.5 70 2.5 ESE 9 11 5 6 1020.7 1020.8 0.0
24/05:00am 12.3 9.6 5.5 63 3.2 SSE 9 11 5 6 1020.5 1020.6 0.0
24/04:30am 12.4 10.0 5.3 62 3.3 E 7 11 4 6 1020.6 1020.7 0.0
24/04:00am 12.0 8.9 5.4 64 3.1 ESE 11 11 6 6 1020.5 1020.6 0.0
24/03:30am 12.1 8.5 5.2 62 3.2 E 13 15 7 8 1020.6 1020.7 0.0
24/03:00am 12.1 8.9 5.2 62 3.2 ESE 11 13 6 7 1020.9 1021.0 0.0
24/02:30am 11.1 8.4 5.7 69 2.5 ESE 9 13 5 7 1021.1 1021.2 0.0
24/02:00am 12.3 8.3 5.0 61 3.4 E 15 17 8 9 1021.3 1021.4 0.0
24/01:30am 12.5 8.1 4.7 59 3.6 E 17 19 9 10 1021.6 1021.7 0.0
24/01:00am 13.1 9.1 4.9 57 3.8 E 15 17 8 9 1021.9 1022.0 0.0
24/12:30am 13.0 9.0 4.8 57 3.8 E 15 17 8 9 1022.1 1022.2 0.0
24/12:00am 12.5 8.8 4.7 59 3.6 E 13 17 7 9 1022.3 1022.4 0.0
 
Date/Time
EST
Temp
°C
App
Temp
°C
Dew
Point
Rel
Hum
%
Delta-T
°C
Wind Press
QNH
hPa
Press
MSL
hPa
Rain
since 9 am
mm
Dir
 
Spd
km/h
Gust
km/h
Spd
kts
Gust
kts
23/11:30pm 12.7 9.5 5.0 59 3.6 E 11 13 6 7 1022.3 1022.4 0.0
23/11:00pm 13.1 9.1 4.9 57 3.8 E 15 15 8 8 1022.3 1022.4 0.0
23/10:30pm 13.4 9.4 4.8 56 4.0 E 15 17 8 9 1022.4 1022.5 0.0
23/10:00pm 14.3 10.6 4.4 51 4.6 E 13 15 7 8 1022.3 1022.4 0.0
23/09:30pm 14.5 10.5 4.9 52 4.5 E 15 15 8 8 1022.6 1022.7 0.0
23/09:00pm 14.4 10.5 5.3 54 4.3 E 15 15 8 8 1023.1 1023.3 0.0
23/08:30pm 14.9 11.4 5.5 53 4.5 E 13 13 7 7 1023.5 1023.7 0.0
23/08:00pm 15.5 12.4 5.5 51 4.8 E 11 11 6 6 1023.6 1023.8 0.0
23/07:30pm 15.9 12.7 5.0 48 5.2 E 11 11 6 6 1023.4 1023.6 0.0
23/07:00pm 16.7 13.8 4.5 44 5.8 ESE 9 11 5 6 1023.3 1023.5 0.0
23/06:30pm 17.6 14.2 4.1 40 6.4 ESE 11 11 6 6 1023.1 1023.3 0.0
23/06:00pm 19.8 16.2 2.7 32 8.0 SE 11 11 6 6 1023.1 1023.3 0.0
23/05:30pm 21.3 17.6 2.1 28 9.0 ESE 11 13 6 7 1023.2 1023.4 0.0
23/05:00pm 22.1 19.0 1.5 25 9.6 ESE 7 9 4 5 1023.3 1023.5 0.0
23/04:30pm 22.4 19.5 2.7 27 9.5 SE 7 9 4 5 1023.2 1023.4 0.0
23/04:00pm 22.5 19.2 2.6 27 9.5 ENE 9 15 5 8 1023.2 1023.4 0.0
23/03:30pm 22.6 18.9 2.1 26 9.7 E 11 19 6 10 1023.3 1023.5 0.0
23/03:00pm 22.6 19.0 2.8 27 9.5 E 11 17 6 9 1023.6 1023.8 0.0
23/02:30pm 22.9 19.9 4.3 29 9.2 NNE 9 17 5 9 1023.9 1024.1 0.0
23/02:00pm 22.6 19.5 3.4 28 9.3 ESE 9 17 5 9 1024.5 1024.6 0.0
23/01:30pm 22.6 18.8 4.1 30 9.1 NE 13 22 7 12 1024.8 1024.9 0.0
23/01:00pm 22.4 18.6 4.0 30 9.0 E 13 19 7 10 1025.0 1025.1 0.0
23/12:30pm 22.0 18.9 3.6 30 9.0 NE 9 17 5 9 1025.6 1025.7 0.0
23/12:00pm 21.3 17.9 1.7 27 9.1 E 9 15 5 8 1026.3 1026.4 0.0
23/11:30am 21.0 18.3 3.8 32 8.3 W 7 11 4 6 1026.9 1027.1 0.0
23/11:00am 19.8 17.5 7.5 45 6.3 E 9 13 5 7 1027.4 1027.6 0.0
23/10:30am 18.5 15.8 7.3 48 5.7 E 11 15 6 8 1027.9 1028.1 0.0
23/10:00am 17.3 14.4 6.6 49 5.3 ENE 11 15 6 8 1028.4 1028.6 0.0
23/09:30am 15.9 11.8 6.3 53 4.7 E 17 20 9 11 1028.7 1028.9 0.0
23/09:00am 14.8 11.2 6.8 58 3.9 E 15 19 8 10 1029.0 1029.1 0.0
23/08:30am 12.5 9.1 5.9 64 3.1 E 13 15 7 8 1029.1 1029.2 0.0
23/08:00am 11.0 7.5 5.4 68 2.6 E 13 17 7 9 1029.2 1029.3 0.0
23/07:30am 10.2 6.6 4.9 69 2.4 E 13 15 7 8 1029.2 1029.3 0.0
23/07:00am 8.7 5.1 4.9 77 1.7 ESE 13 15 7 8 1029.1 1029.2 0.0
23/06:30am 5.9 2.4 3.3 83 1.1 ESE 11 11 6 6 1028.6 1028.8 0.0
23/06:00am 5.3 1.7 3.1 86 0.9 ESE 11 13 6 7 1028.5 1028.7 0.0
23/05:30am 5.4 2.1 2.7 83 1.1 E 9 13 5 7 1028.5 1028.7 0.0
23/05:00am 5.6 2.8 3.2 84 1.0 E 7 9 4 5 1028.5 1028.7 0.0
23/04:30am 5.7 3.1 3.1 83 1.1 E 6 6 3 3 1028.3 1028.5 0.0
23/04:00am 7.2 4.2 4.0 80 1.4 E 9 11 5 6 1027.9 1028.1 0.0
23/03:30am 7.3 3.8 3.6 77 1.6 E 11 13 6 7 1027.8 1028.0 0.0
23/03:00am 7.8 5.2 4.1 77 1.6 ESE 7 9 4 5 1027.6 1027.8 0.0
23/02:30am 7.8 4.5 4.4 79 1.5 E 11 13 6 7 1027.7 1027.9 0.0
23/02:00am 5.7 3.0 2.8 81 1.2 E 6 9 3 5 1027.9 1028.1 0.0
23/01:30am 6.3 4.6 4.2 86 0.9 ENE 2 9 1 5 1028.1 1028.3 0.0
23/01:00am 6.8 4.5 4.7 86 0.9 NE 6 7 3 4 1028.2 1028.4 0.0
23/12:30am 6.2 4.9 4.1 86 0.9 CALM 0 0 0 0 1028.4 1028.6 0.0
23/12:00am 7.3 6.0 4.3 81 1.3 CALM 0 0 0 0 1028.2 1028.4 0.0
 
Date/Time
EST
Temp
°C
App
Temp
°C
Dew
Point
Rel
Hum
%
Delta-T
°C
Wind Press
QNH
hPa
Press
MSL
hPa
Rain
since 9 am
mm
Dir
 
Spd
km/h
Gust
km/h
Spd
kts
Gust
kts
22/11:30pm 7.5 6.4 5.0 84 1.1 CALM 0 0 0 0 1028.3 1028.5 0.0
22/11:00pm 6.5 5.3 4.4 86 0.9 CALM 0 0 0 0 1028.4 1028.6 0.0
22/10:30pm 7.9 5.6 4.7 80 1.4 ESE 6 7 3 4 1028.5 1028.7 0.0
22/10:00pm 8.5 5.6 4.7 77 1.7 ESE 9 13 5 7 1028.5 1028.7 0.0
22/09:30pm 10.2 7.6 5.9 74 2.0 ENE 9 11 5 6 1028.6 1028.8 0.0
22/09:00pm 8.7 7.8 5.9 82 1.3 CALM 0 0 0 0 1028.4 1028.6 0.0
22/08:30pm 9.1 6.8 5.6 79 1.6 ENE 7 9 4 5 1028.3 1028.5 0.0
22/08:00pm 12.6 9.9 5.8 63 3.2 E 9 11 5 6 1028.1 1028.3 0.0
22/07:30pm 13.9 11.2 5.7 57 3.9 E 9 9 5 5 1027.8 1028.0 0.0
22/07:00pm 15.9 13.2 5.8 51 4.9 E 9 11 5 6 1027.5 1027.7 0.0
22/06:30pm 16.7 13.6 5.5 47 5.4 ESE 11 13 6 7 1027.1 1027.3 0.0
22/06:00pm 18.6 15.4 3.2 36 7.2 ESE 9 13 5 7 1026.8 1026.9 0.0
22/05:30pm 19.7 16.8 2.5 32 8.1 E 7 9 4 5 1026.6 1026.7 0.0
22/05:00pm 20.9 17.8 1.6 27 8.9 E 7 9 4 5 1026.4 1026.5 0.0
22/04:30pm 21.0 17.7 2.2 29 8.8 NNE 9 11 5 6 1026.4 1026.5 0.0
22/04:00pm 21.5 18.2 2.7 29 8.9 NE 9 15 5 8 1026.5 1026.6 0.0
22/03:30pm 21.2 17.9 2.2 28 8.9 E 9 13 5 7 1026.6 1026.7 0.0
22/03:00pm 22.0 19.3 5.4 34 8.3 NW 9 15 5 8 1027.0 1027.2 0.0
22/02:30pm 21.1 17.5 2.7 29 8.7 N 11 19 6 10 1027.2 1027.4 0.0
22/02:00pm 21.5 18.0 5.5 35 8.0 NNW 13 19 7 10 1027.5 1027.7 0.0
22/01:30pm 21.1 17.9 4.9 34 8.0 NW 11 24 6 13 1027.9 1028.1 0.0
22/01:00pm 20.5 17.1 5.9 38 7.3 N 13 19 7 10 1028.4 1028.6 0.0
22/12:30pm 20.6 17.5 7.1 41 7.0 NNE 13 19 7 10 1029.0 1029.1 0.0
22/12:00pm 19.5 16.6 6.6 43 6.5 N 11 17 6 9 1029.5 1029.6 0.0
22/11:30am 18.8 16.2 7.9 49 5.6 N 11 19 6 10 1029.9 1030.0 0.0
22/11:00am 18.1 15.6 8.4 53 5.0 NNE 11 19 6 10 1030.3 1030.4 0.0
22/10:30am 17.7 15.0 9.1 57 4.5 ENE 13 19 7 10 1030.8 1030.9 0.0
22/10:00am 16.2 12.8 7.6 56 4.3 E 15 17 8 9 1031.1 1031.3 0.0
22/09:30am 15.2 11.3 7.3 59 3.9 E 17 20 9 11 1031.1 1031.3 0.0
22/09:00am 14.0 10.1 7.0 62 3.4 E 17 19 9 10 1031.2 1031.4 0.0
22/08:30am 12.3 8.7 6.7 68 2.7 E 15 20 8 11 1031.1 1031.3 0.0
22/08:00am 11.1 7.8 6.2 72 2.3 E 13 17 7 9 1031.0 1031.2 0.0
22/07:30am 10.3 7.4 6.5 77 1.8 E 11 13 6 7 1030.9 1031.1 0.0
22/07:00am 8.2 5.1 5.5 83 1.2 E 11 11 6 6 1030.4 1030.5 0.0
22/06:30am 5.1 1.6 3.7 91 0.6 E 11 11 6 6 1030.0 1030.1 0.0
22/06:00am 5.0 1.1 3.6 91 0.6 ESE 13 15 7 8 1029.6 1029.7 0.0
22/05:30am 5.3 2.6 3.9 91 0.6 ESE 7 9 4 5 1029.3 1029.4 0.0
22/05:00am 4.2 0.9 2.5 89 0.7 ESE 9 11 5 6 1029.0 1029.1 0.0
22/04:30am 4.1 0.5 2.9 92 0.5 ESE 11 11 6 6 1028.7 1028.9 0.0
22/04:00am 4.7 3.3 3.5 92 0.5 CALM 0 0 0 0 1028.4 1028.6 0.0
22/03:30am 5.4 2.3 3.5 87 0.8 ESE 9 9 5 5 1028.3 1028.5 0.0
22/03:00am 4.7 1.3 4.0 95 0.3 ESE 11 11 6 6 1028.3 1028.5 0.0
22/02:30am 3.5 0.5 2.0 90 0.6 SE 7 9 4 5 1028.4 1028.6 0.0
22/02:00am 5.5 2.3 3.1 84 1.0 E 9 11 5 6 1028.5 1028.7 0.0
22/01:30am 4.5 0.9 2.8 89 0.7 ESE 11 13 6 7 1028.5 1028.7 0.0
22/01:00am 4.0 1.1 2.8 92 0.5 SSE 7 9 4 5 1028.6 1028.8 0.0
22/12:30am 5.9 2.9 4.0 88 0.8 E 9 13 5 7 1028.6 1028.8 0.0
22/12:00am 5.6 3.1 4.0 89 0.7 E 6 9 3 5 1028.6 1028.8 0.0
 
Date/Time
EST
Temp
°C
App
Temp
°C
Dew
Point
Rel
Hum
%
Delta-T
°C
Wind Press
QNH
hPa
Press
MSL
hPa
Rain
since 9 am
mm
Dir
 
Spd
km/h
Gust
km/h
Spd
kts
Gust
kts
21/11:30pm 5.5 3.4 3.8 89 0.7 SSW 4 7 2 4 1028.6 1028.8 0.0
21/11:00pm 5.0 2.3 3.6 91 0.6 S 7 9 4 5 1028.5 1028.7 0.0
21/10:30pm 7.3 5.0 4.8 84 1.1 ENE 6 7 3 4 1028.6 1028.8 0.0
21/10:00pm 9.5 6.8 5.8 78 1.7 ENE 9 11 5 6 1028.6 1028.8 0.0
21/09:30pm 8.8 6.5 5.5 80 1.5 NNE 7 9 4 5 1028.4 1028.6 0.0
21/09:00pm 10.0 8.6 5.4 73 2.1 ESE 2 7 1 4 1028.0 1028.2 0.0
21/08:30pm 8.1 6.6 5.0 81 1.4 S 2 6 1 3 1027.8 1028.0 0.0
21/08:00pm 9.9 8.5 5.5 74 2.0 SSE 2 7 1 4 1027.5 1027.7 0.0
21/07:30pm 11.5 8.5 6.2 70 2.5 SE 11 15 6 8 1027.1 1027.3 0.0
21/07:00pm 11.1 8.5 6.2 72 2.3 SSE 9 9 5 5 1027.0 1027.2 0.0
21/06:30pm 14.0 10.7 4.5 52 4.4 SE 11 15 6 8 1026.8 1026.9 0.0
21/06:00pm 16.7 14.1 4.2 43 5.9 ESE 7 7 4 4 1026.6 1026.7 0.0
21/05:30pm 18.1 15.0 3.4 37 6.9 ESE 9 11 5 6 1026.5 1026.6 0.0
21/05:00pm 18.8 15.3 3.6 36 7.2 SE 11 15 6 8 1026.5 1026.6 0.0
21/04:30pm 19.4 15.9 3.6 35 7.5 SE 11 15 6 8 1026.4 1026.5 0.0
21/04:00pm 19.5 17.4 3.8 35 7.5 S 4 9 2 5 1026.5 1026.6 0.0
21/03:30pm 19.4 16.4 3.9 36 7.4 SSW 9 15 5 8 1026.6 1026.7 0.0
21/03:00pm 19.9 17.4 4.7 36 7.4 S 7 13 4 7 1026.8 1026.9 0.0
21/02:30pm 20.3 17.7 5.9 39 7.2 SSE 9 13 5 7 1027.1 1027.3 0.0

Other Formats:

Comma delimited format used in spreadsheet applications
http://www.bom.gov.au/fwo/IDN60801/IDN60801.94910.axf

JavaScript Object Notation format (JSON) in row-major order
http://www.bom.gov.au/fwo/IDN60801/IDN60801.94910.json